Terminal Aerodrome Forecast
Issued by NWS

Home | Current Version | Previous Version | Text Only | Print | Product List | Glossary On
Versions: 1 2 3 4 5 6 7 8 9 10 11 12 13 14
000
FTUS46 KPDT 231700
TAFDLS
TAF
KDLS 231724Z 2318/2418 31012G22KT P6SM VCSH OVC090
     FM231900 31014G25KT 3SM RA BR BKN030 OVC080
     FM232200 31018G30KT P6SM VCTS BKN060CB OVC090
     FM240100 31015G25KT P6SM SCT060 BKN090
     FM240600 29010KT P6SM SCT060=

USA.gov is the U.S. government's official web portal to all federal, state and local government web resources and services.